Flight Track Log - Related Links

Times and Time Zones

All times are in EDT time to prevent confusion due to time zone crossing. See the UAL33 flight status page for this flight to view local times or setup timezone preferences in your user account.

Time Position Orientation Groundspeed Altitude Reporting Facility
EDT Latitude Longitude Course Direction KTS MPH feet Rate Location/Type
Sun 06:04:51 PM 29.9484 -95.3364 158° South 159 183 1,400  Level FlightAware ADS-B
Sun 06:04:55 PM 29.9460 -95.3367 186° South 164 189 1,500 1,500 Climbing FlightAware ADS-B
Sun 06:04:59 PM 29.9424 -95.3380 197° South 171 197 1,600 1,500 Climbing FlightAware ADS-B
Sun 06:05:03 PM 29.9397 -95.3397 209° Southwest 176 203 1,700 2,000 Climbing FlightAware ADS-B
Sun 06:05:08 PM 29.9365 -95.3429 221° Southwest 180 207 1,900 2,667 Climbing FlightAware ADS-B
Sun 06:05:12 PM 29.9346 -95.3459 234° Southwest 183 211 2,100 2,571 Climbing FlightAware ADS-B
Sun 06:05:15 PM 29.9335 -95.3486 245° Southwest 185 213 2,200 2,667 Climbing FlightAware ADS-B
Sun 06:05:21 PM 29.9321 -95.3544 254° West 188 216 2,500 2,667 Climbing FlightAware ADS-B
Sun 06:05:24 PM 29.9320 -95.3578 268° West 190 219 2,600 2,571 Climbing FlightAware ADS-B
Sun 06:05:28 PM 29.9324 -95.3620 276° West 191 220 2,800 2,667 Climbing FlightAware ADS-B
Sun 06:05:33 PM 29.9334 -95.3660 286° West 193 222 3,000 2,250 Climbing FlightAware ADS-B
Sun 06:05:36 PM 29.9347 -95.3690 297° West 195 224 3,100 2,250 Climbing FlightAware ADS-B
Sun 06:05:41 PM 29.9377 -95.3736 307° West 197 227 3,300 2,308 Climbing FlightAware ADS-B
Sun 06:05:49 PM 29.9434 -95.3787 322° Northwest 200 230 3,600 1,714 Climbing FlightAware ADS-B
Sun 06:05:55 PM 29.9485 -95.3811 338° Northwest 211 243 3,700 1,200 Climbing FlightAware ADS-B
Sun 06:05:59 PM 29.9526 -95.3822 347° North 221 254 3,800 1,714 Climbing FlightAware ADS-B
Sun 06:06:02 PM 29.9562 -95.3825 356° North 228 262 3,900 750 Climbing FlightAware ADS-B
Sun 06:06:07 PM 29.9613 -95.3825 360° North 238 274 3,900 667 Level FlightAware ADS-B
Sun 06:06:38 PM 29.9979 -95.3795 North 270 311 4,300 1,149 Climbing FlightAware ADS-B
Sun 06:06:54 PM 30.0187 -95.3774 North 276 318 4,800 472 Climbing FlightAware ADS-B
Sun 06:08:07 PM 30.1124 -95.3675 North 279 321 5,000 514 Climbing FlightAware ADS-B
Sun 06:08:39 PM 30.1538 -95.3631 North 283 326 5,700 2,476 Climbing FlightAware ADS-B
Sun 06:09:10 PM 30.1947 -95.3594 360° North 288 331 7,600 3,652 Climbing FlightAware ADS-B
Sun 06:09:25 PM 30.2135 -95.3650 337° Northwest 289 333 8,500 3,750 Climbing FlightAware ADS-B
Sun 06:09:42 PM 30.2329 -95.3804 322° Northwest 291 335 9,600 2,816 Climbing FlightAware ADS-B
Sun 06:10:14 PM 30.2677 -95.4118 322° Northwest 320 368 10,800 2,419 Climbing FlightAware ADS-B
Sun 06:10:44 PM 30.3051 -95.4456 322° Northwest 342 394 12,100 2,857 Climbing FlightAware ADS-B
Sun 06:11:17 PM 30.3463 -95.4825 322° Northwest 351 404 13,800 3,095 Climbing FlightAware ADS-B
Sun 06:12:50 PM 30.4678 -95.5914 322° Northwest 365 420 18,600 2,977 Climbing FlightAware ADS-B
Sun 06:13:30 PM 30.5229 -95.6403 324° Northwest 379 436 20,400 2,588 Climbing FlightAware ADS-B
Sun 06:13:41 PM 30.5393 -95.6523 328° Northwest 383 441 20,800 2,471 Climbing FlightAware ADS-B
Sun 06:13:47 PM 30.5493 -95.6588 331° Northwest 384 442 21,100 2,471 Climbing FlightAware ADS-B
Sun 06:14:15 PM 30.5946 -95.6835 335° Northwest 393 452 22,200 2,441 Climbing FlightAware ADS-B
Sun 06:14:46 PM 30.6465 -95.7112 335° Northwest 398 458 23,500 1,737 Climbing FlightAware ADS-B
Sun 06:16:47 PM 30.8580 -95.8246 335° Northwest 448 516 26,600 2,152 Climbing FlightAware ADS-B
Sun 06:17:50 PM 30.9720 -95.8861 335° Northwest 417 480 30,100 2,143 Climbing FlightAware ADS-B
Sun 06:18:53 PM 31.0861 -95.9475 335° Northwest 448 516 31,100 918 Climbing FlightAware ADS-B
Sun 06:19:15 PM 31.1295 -95.9664 340° North 460 529 31,400 1,000 Climbing FlightAware ADS-B
Sun 06:20:05 PM 31.2367 -95.9940 349° North 476 548 32,300 1,157 Climbing FlightAware ADS-B
Sun 06:20:38 PM 31.3071 -96.0105 349° North 478 550 33,000 1,429 Climbing FlightAware ADS-B
Sun 06:21:08 PM 31.3744 -96.0263 349° North 478 550 33,800 1,705 Climbing FlightAware ADS-B
Sun 06:22:13 PM 31.5127 -96.0589 349° North 473 544 35,700 1,653 Climbing FlightAware ADS-B
Sun 06:22:46 PM 31.5846 -96.0758 349° North 470 541 36,500 1,324 Climbing FlightAware ADS-B
Sun 06:23:21 PM 31.6588 -96.0932 349° North 470 541 37,200 865 Climbing FlightAware ADS-B
Sun 06:24:37 PM 31.8220 -96.1320 348° North 480 552 38,100 742 Climbing FlightAware ADS-B
Sun 06:24:50 PM 31.8514 -96.1389 349° North 480 552 38,300 643 Climbing FlightAware ADS-B
Sun 06:26:01 PM 32.0070 -96.1750 349° North 480 552 39,000 375 Climbing FlightAware ADS-B
Sun 06:26:42 PM 32.0930 -96.1960 348° North 477 549 39,000  Level FlightAware ADS-B
Sun 06:26:58 PM 32.1307 -96.2049 349° North 477 549 39,000  Level FlightAware ADS-B
Sun 06:27:35 PM 32.2113 -96.2175 352° North 479 551 39,000  Level FlightAware ADS-B
Sun 06:28:06 PM 32.2800 -96.2190 359° North 485 558 39,000  Level FlightAware ADS-B
Sun 06:28:45 PM 32.3688 -96.2202 360° North 485 558 39,000  Level FlightAware ADS-B
Sun 06:30:56 PM 32.6620 -96.2240 359° North 484 557 39,000  Level FlightAware ADS-B
Sun 06:31:36 PM 32.7530 -96.2250 359° North 484 557 39,000  Level FlightAware ADS-B
Sun 06:32:20 PM 32.8500 -96.2260 360° North 483 556 39,000  Level FlightAware ADS-B
Sun 06:32:59 PM 32.9360 -96.2270 359° North 483 556 39,000  Level FlightAware ADS-B
Sun 06:33:43 PM 33.0340 -96.2280 360° North 482 555 39,000  Level FlightAware ADS-B
Sun 06:34:23 PM 33.1240 -96.2290 359° North 484 557 39,000  Level FlightAware ADS-B
Sun 06:34:57 PM 33.2016 -96.2301 359° North 485 558 39,000  Level FlightAware ADS-B
Sun 06:35:46 PM 33.3120 -96.2310 360° North 485 558 39,000 383 Level FlightAware ADS-B
Sun 06:36:31 PM 33.4110 -96.2330 359° North 483 556 39,600 835 Climbing FlightAware ADS-B
Sun 06:37:05 PM 33.4860 -96.2330 360° North 483 556 40,100 643 Climbing FlightAware ADS-B
Sun 06:37:27 PM 33.5370 -96.2290 North 488 562 40,200 571 Climbing FlightAware ADS-B
Sun 06:38:08 PM 33.6280 -96.2030 13° North 495 570 40,700 571 Climbing FlightAware ADS-B
Sun 06:38:51 PM 33.7220 -96.1710 16° North 488 562 41,000 214 Climbing FlightAware ADS-B
Sun 06:39:32 PM 33.8090 -96.1420 15° North 485 558 41,000  Level FlightAware ADS-B
Sun 06:40:13 PM 33.8980 -96.1110 16° North 486 559 41,000  Level FlightAware ADS-B
Sun 06:40:57 PM 33.9940 -96.0790 15° North 482 555 41,000  Level FlightAware ADS-B
Sun 06:41:38 PM 34.0830 -96.0480 16° North 483 556 41,000  Level FlightAware ADS-B
Sun 06:42:22 PM 34.1740 -96.0170 16° North 485 558 41,000  Level FlightAware ADS-B
Sun 06:43:01 PM 34.2600 -95.9870 16° North 481 554 41,000  Level FlightAware ADS-B
Sun 06:43:46 PM 34.3560 -95.9540 16° North 482 555 41,000  Level FlightAware ADS-B
Sun 06:44:25 PM 34.4400 -95.9250 16° North 484 557 41,000  Level FlightAware ADS-B
Sun 06:45:06 PM 34.5300 -95.8940 16° North 483 556 41,000  Level FlightAware ADS-B
Sun 06:45:48 PM 34.6170 -95.8480 24° Northeast 495 570 41,000  Level FlightAware ADS-B
Sun 06:46:33 PM 34.6900 -95.7770 39° Northeast 504 580 41,000  Level FlightAware ADS-B
Sun 06:47:11 PM 34.7590 -95.6970 44° Northeast 504 580 41,000  Level FlightAware ADS-B
Sun 06:47:55 PM 34.8400 -95.6190 38° Northeast 500 575 41,000  Level FlightAware ADS-B
Sun 06:48:51 PM 34.9450 -95.5270 36° Northeast 501 577 41,000  Level FlightAware ADS-B
Sun 06:49:30 PM 35.0080 -95.4730 35° Northeast 500 575 41,000  Level FlightAware ADS-B
Sun 06:50:17 PM 35.0840 -95.4080 35° Northeast 500 575 41,000  Level FlightAware ADS-B
Sun 06:50:53 PM 35.1420 -95.3580 35° Northeast 500 575 41,000  Level FlightAware ADS-B
Sun 06:51:32 PM 35.2480 -95.2600 37° Northeast 507 583 41,000  Level FlightAware ADS-B
Sun 06:52:38 PM 35.3760 -95.1470 36° Northeast 500 575 41,000  Level FlightAware ADS-B
Sun 06:53:18 PM 35.4480 -95.0830 36° Northeast 492 566 41,000  Level FlightAware ADS-B
Sun 06:53:58 PM 35.5230 -95.0160 36° Northeast 485 558 41,000  Level FlightAware ADS-B
Sun 06:54:44 PM 35.6060 -94.9430 36° Northeast 483 556 41,000  Level FlightAware ADS-B
Sun 06:55:22 PM 35.6750 -94.8810 36° Northeast 490 564 41,000  Level FlightAware ADS-B
Sun 06:56:08 PM 35.7610 -94.8040 36° Northeast 500 575 41,000  Level FlightAware ADS-B
Sun 06:56:46 PM 35.8330 -94.7390 36° Northeast 501 577 41,000  Level FlightAware ADS-B
Sun 06:57:28 PM 35.9100 -94.6690 36° Northeast 502 578 41,000  Level FlightAware ADS-B
Sun 06:58:12 PM 35.9920 -94.5950 36° Northeast 496 571 41,000  Level FlightAware ADS-B
Sun 06:58:53 PM 36.0670 -94.5280 36° Northeast 494 568 41,000  Level FlightAware ADS-B
Sun 06:59:34 PM 36.1430 -94.4590 36° Northeast 485 558 41,000  Level FlightAware ADS-B
Sun 07:00:16 PM 36.2190 -94.3900 36° Northeast 488 562 41,000  Level FlightAware ADS-B
Sun 07:00:58 PM 36.2950 -94.3210 36° Northeast 487 560 41,000  Level FlightAware ADS-B
Sun 07:01:43 PM 36.3760 -94.2460 37° Northeast 493 567 41,000  Level FlightAware ADS-B
Sun 07:02:24 PM 36.4520 -94.1770 36° Northeast 494 568 41,000  Level FlightAware ADS-B
Sun 07:03:06 PM 36.5290 -94.1060 37° Northeast 494 568 41,000  Level FlightAware ADS-B
Sun 07:03:47 PM 36.6040 -94.0370 36° Northeast 496 571 41,000  Level FlightAware ADS-B
Sun 07:04:32 PM 36.6870 -93.9600 37° Northeast 492 566 41,000  Level FlightAware ADS-B
Sun 07:05:12 PM 36.7610 -93.8910 37° Northeast 490 564 41,000  Level FlightAware ADS-B
Sun 07:05:53 PM 36.8340 -93.8230 37° Northeast 493 567 41,000  Level FlightAware ADS-B
Sun 07:06:38 PM 36.9170 -93.7460 37° Northeast 497 572 41,000  Level FlightAware ADS-B
Sun 07:07:18 PM 36.9920 -93.6760 37° Northeast 499 574 41,000  Level FlightAware ADS-B
Sun 07:08:00 PM 37.0690 -93.6040 37° Northeast 497 572 41,000  Level FlightAware ADS-B
Sun 07:08:40 PM 37.1420 -93.5360 37° Northeast 493 567 41,000  Level FlightAware ADS-B
Sun 07:09:22 PM 37.2200 -93.4630 37° Northeast 502 578 41,000  Level FlightAware ADS-B
Sun 07:10:06 PM 37.3020 -93.3850 37° Northeast 511 588 41,000  Level FlightAware ADS-B
Sun 07:10:42 PM 37.3710 -93.3200 37° Northeast 514 592 41,000  Level FlightAware ADS-B
Sun 07:11:30 PM 37.4620 -93.2360 36° Northeast 516 594 41,000  Level FlightAware ADS-B
Sun 07:12:14 PM 37.5470 -93.1580 36° Northeast 517 595 41,000  Level FlightAware ADS-B
Sun 07:12:56 PM 37.6280 -93.0830 36° Northeast 518 596 41,000  Level FlightAware ADS-B
Sun 07:13:36 PM 37.7060 -93.0110 36° Northeast 520 598 41,000  Level FlightAware ADS-B
Sun 07:14:14 PM 37.7790 -92.9420 37° Northeast 520 598 41,000  Level FlightAware ADS-B
Sun 07:15:02 PM 37.8710 -92.8570 36° Northeast 522 601 41,000  Level FlightAware ADS-B
Sun 07:15:40 PM 37.9450 -92.7870 37° Northeast 523 602 41,000  Level FlightAware ADS-B
Sun 07:16:24 PM 38.0310 -92.7060 37° Northeast 523 602 41,000  Level FlightAware ADS-B
Sun 07:17:04 PM 38.1090 -92.6330 36° Northeast 524 603 41,000  Level FlightAware ADS-B
Sun 07:17:46 PM 38.1890 -92.5570 37° Northeast 524 603 41,000  Level FlightAware ADS-B
Sun 07:18:28 PM 38.2710 -92.4800 36° Northeast 524 603 41,000  Level FlightAware ADS-B
Sun 07:19:27 PM 38.3820 -92.3740 37° Northeast 532 612 41,000  Level FlightAware ADS-B
Sun 07:20:04 PM 38.4440 -92.3160 36° Northeast 532 612 41,000  Level FlightAware ADS-B
Sun 07:20:52 PM 38.5260 -92.2410 36° Northeast 532 612 41,000  Level FlightAware ADS-B
Sun 07:21:27 PM 38.5850 -92.1860 36° Northeast 532 612 41,000  Level FlightAware ADS-B
Sun 07:22:13 PM 38.6630 -92.1130 36° Northeast 532 612 41,000  Level FlightAware ADS-B
Sun 07:22:49 PM 38.7240 -92.0570 36° Northeast 532 612 41,000  Level FlightAware ADS-B
Sun 07:23:39 PM 38.8830 -91.8920 39° Northeast 535 616 41,000  Level FlightAware ADS-B
Sun 07:24:18 PM 38.9490 -91.8290 37° Northeast 535 616 41,000  Level FlightAware ADS-B
Sun 07:25:02 PM 39.0480 -91.7330 37° Northeast 535 616 41,000  Level FlightAware ADS-B
Sun 07:25:45 PM 39.1230 -91.6600 37° Northeast 535 616 41,000  Level FlightAware ADS-B
Sun 07:26:22 PM 39.1850 -91.5990 37° Northeast 535 616 41,000  Level FlightAware ADS-B
Sun 07:27:09 PM 39.3000 -91.4860 37° Northeast 533 613 41,000  Level FlightAware ADS-B
Sun 07:27:52 PM 39.3800 -91.4070 37° Northeast 532 612 41,000  Level FlightAware ADS-B
Sun 07:28:48 PM 39.4920 -91.2960 37° Northeast 534 615 41,000  Level FlightAware ADS-B
Sun 07:29:21 PM 39.5560 -91.2320 38° Northeast 534 615 41,000  Level FlightAware ADS-B
Sun 07:30:06 PM 39.6460 -91.1420 38° Northeast 533 613 41,000  Level FlightAware ADS-B
Sun 07:30:46 PM 39.7230 -91.0660 37° Northeast 531 611 41,000  Level FlightAware ADS-B
Sun 07:31:36 PM 39.8210 -90.9680 38° Northeast 532 612 41,000 -267 Level FlightAware ADS-B
Sun 07:32:16 PM 39.8980 -90.8900 38° Northeast 520 598 40,600 -1,875 Descending FlightAware ADS-B
Sun 07:32:56 PM 39.9750 -90.8120 38° Northeast 533 613 38,500 -3,711 Descending FlightAware ADS-B
Sun 07:33:32 PM 40.0460 -90.7400 38° Northeast 557 641 35,900 -3,732 Descending FlightAware ADS-B
Sun 07:34:18 PM 40.1390 -90.6470 37° Northeast 562 647 33,400 -1,871 Descending FlightAware ADS-B
Sun 07:35:05 PM 40.2340 -90.5500 38° Northeast 521 600 33,000 -276 Descending FlightAware ADS-B
Sun 07:35:45 PM 40.3090 -90.4730 38° Northeast 502 578 33,000 -578 Level FlightAware ADS-B
Sun 07:36:28 PM 40.3850 -90.3950 38° Northeast 499 574 32,200 -1,326 Descending FlightAware ADS-B
Sun 07:37:11 PM 40.4630 -90.3150 38° Northeast 484 557 31,100 -1,553 Descending FlightAware ADS-B
Sun 07:37:53 PM 40.5340 -90.2420 38° Northeast 474 545 30,000 -1,462 Descending FlightAware ADS-B
Sun 07:38:29 PM 40.5980 -90.1760 38° Northeast 461 531 29,200 -1,125 Descending FlightAware ADS-B
Sun 07:39:13 PM 40.6680 -90.1030 38° Northeast 445 512 28,500 -933 Descending FlightAware ADS-B
Sun 07:39:59 PM 40.7450 -90.0230 38° Northeast 447 514 27,800 -897 Descending FlightAware ADS-B
Sun 07:40:40 PM 40.8100 -89.9560 38° Northeast 450 518 27,200 -900 Descending FlightAware ADS-B
Sun 07:41:19 PM 40.8750 -89.8880 38° Northeast 444 511 26,600 -857 Descending FlightAware ADS-B
Sun 07:41:57 PM 40.9350 -89.8240 39° Northeast 441 507 26,100 -847 Descending FlightAware ADS-B
Sun 07:42:44 PM 41.0100 -89.7460 38° Northeast 442 509 25,400 -933 Descending FlightAware ADS-B
Sun 07:43:27 PM 41.0790 -89.6730 39° Northeast 437 503 24,700 -878 Descending FlightAware ADS-B
Sun 07:44:06 PM 41.1370 -89.6100 39° Northeast 425 489 24,200 -1,286 Descending FlightAware ADS-B
Sun 07:44:51 PM 41.1900 -89.5130 54° Northeast 433 498 22,900 -1,888 Descending FlightAware ADS-B
Sun 07:45:35 PM 41.2320 -89.4080 62° Northeast 430 495 21,400 -2,047 Descending FlightAware ADS-B
Sun 07:46:16 PM 41.2690 -89.3180 61° Northeast 404 465 20,000 -1,976 Descending FlightAware ADS-B
Sun 07:46:57 PM 41.3050 -89.2290 62° Northeast 396 456 18,700 -1,835 Descending FlightAware ADS-B
Sun 07:47:41 PM 41.3420 -89.1380 62° Northeast 397 457 17,400 -1,857 Descending FlightAware ADS-B
Sun 07:48:21 PM 41.3770 -89.0480 63° Northeast 390 449 16,100 -1,929 Descending FlightAware ADS-B
Sun 07:49:05 PM 41.4140 -88.9560 62° Northeast 380 437 14,700 -1,884 Descending FlightAware ADS-B
Sun 07:49:47 PM 41.4480 -88.8700 62° Northeast 365 420 13,400 -1,704 Descending FlightAware ADS-B
Sun 07:50:26 PM 41.4770 -88.7960 62° Northeast 358 412 12,400 -1,590 Descending FlightAware ADS-B
Sun 07:51:10 PM 41.5120 -88.7100 61° Northeast 359 413 11,200 -955 Descending FlightAware ADS-B
Sun 07:51:54 PM 41.5460 -88.6240 62° Northeast 370 426 11,000 -72 Descending FlightAware ADS-B
Sun 07:52:33 PM 41.5780 -88.5420 62° Northeast 371 427 11,100  Climbing FlightAware ADS-B
Sun 07:53:16 PM 41.6130 -88.4600 60° Northeast 368 423 11,000 -72 Descending FlightAware ADS-B
Sun 07:53:56 PM 41.6550 -88.3880 52° Northeast 365 420 11,000 71 Level FlightAware ADS-B
Sun 07:54:40 PM 41.7010 -88.3090 52° Northeast 366 421 11,100  Climbing FlightAware ADS-B
Sun 07:55:22 PM 41.7450 -88.2340 52° Northeast 368 423 11,000 -71 Descending FlightAware ADS-B
Sun 07:56:04 PM 41.7860 -88.1640 52° Northeast 330 380 11,000 -214 Level FlightAware ADS-B
Sun 07:56:46 PM 41.8230 -88.1000 52° Northeast 302 348 10,700 -714 Descending FlightAware ADS-B
Sun 07:57:28 PM 41.8580 -88.0370 53° Northeast 295 339 10,000 -1,111 Descending FlightAware ADS-B
Sun 07:57:40 PM 41.8680 -88.0190 53° Northeast 295 339 9,700 -1,364 Descending FlightAware ADS-B
Sun 07:58:12 PM 41.8840 -87.9650 68° East 305 351 9,000 -1,263 Descending FlightAware ADS-B
Sun 07:58:37 PM 41.8840 -87.9150 90° East 303 349 8,500 -1,091 Descending FlightAware ADS-B
Sun 07:59:07 PM 41.8840 -87.8600 90° East 299 344 8,000 -1,034 Descending FlightAware ADS-B
Sun 07:59:35 PM 41.8840 -87.8130 90° East 274 315 7,500 -1,059 Descending FlightAware ADS-B
Sun 08:00:15 PM 41.8840 -87.7480 90° East 232 267 6,800 -1,238 Descending FlightAware ADS-B
Sun 08:00:38 PM 41.8840 -87.7210 90° East 224 258 6,200 -1,729 Descending FlightAware ADS-B
Sun 08:01:14 PM 41.8970 -87.6770 68° East 200 230 5,100 -1,957 Descending FlightAware ADS-B
Sun 08:01:24 PM 41.9060 -87.6740 14° North 193 222 4,700 -2,049 Descending FlightAware ADS-B
Sun 08:01:55 PM 41.9290 -87.6930 328° Northwest 187 215 3,700 -1,800 Descending FlightAware ADS-B
Sun 08:02:24 PM 41.9440 -87.7180 309° West 185 213 2,900 -964 Descending FlightAware ADS-B
Sun 08:02:51 PM 41.9580 -87.7420 308° West 170 196 2,800 -462 Descending FlightAware ADS-B
Sun 08:03:03 PM 41.9640 -87.7520 309° West 169 194 2,600 -857 Descending FlightAware ADS-B
Sun 08:03:19 PM 41.9700 -87.7670 298° West 162 186 2,400 -857 Descending FlightAware ADS-B
Sun 08:03:31 PM 41.9700 -87.7790 270° West 162 186 2,200 -1,000 Descending FlightAware ADS-B
Sun 08:04:01 PM 41.9690 -87.8090 267° West 158 182 1,700 -828 Descending FlightAware ADS-B
Sun 08:04:29 PM 41.9690 -87.8340 270° West 140 161 1,400 -632 Descending FlightAware ADS-B
Sun 08:04:58 PM 41.9690 -87.8590 270° West 138 159 1,100 -679 Descending FlightAware ADS-B
Sun 08:05:22 PM 41.9690 -87.8800 270° West 137 158 800 -429 Descending FlightAware ADS-B
Sun 08:05:54 PM 41.9690 -87.9030 270° West 138 159 700 -188 Descending FlightAware ADS-B

Login

Don't have an account? Register now (free) for customized features, flight alerts, and more!